createdAt,value
2019-01-02T00:01:52.864Z,19.13
2019-01-02T00:04:24.323Z,18.23
2019-01-02T00:06:55.613Z,18.37
2019-01-02T00:09:26.737Z,18.33
2019-01-02T00:11:58.369Z,17.60
2019-01-02T00:14:29.509Z,17.90
2019-01-02T00:17:00.973Z,16.50
2019-01-02T00:19:32.119Z,17.47
2019-01-02T00:22:03.389Z,16.60
2019-01-02T00:24:34.552Z,17.93
2019-01-02T00:27:17.099Z,15.67
2019-01-02T00:29:48.484Z,17.17
2019-01-02T00:32:19.727Z,17.27
2019-01-02T00:34:51.016Z,17.33
2019-01-02T00:37:22.301Z,16.87
2019-01-02T00:39:53.686Z,17.20
2019-01-02T00:42:25.044Z,17.40
2019-01-02T00:44:56.306Z,16.50
2019-01-02T00:47:27.767Z,16.97
2019-01-02T00:49:58.954Z,16.17
2019-01-02T00:52:30.622Z,15.07
2019-01-02T00:55:01.889Z,15.57
2019-01-02T00:57:33.340Z,15.93
2019-01-02T01:00:05.191Z,17.37
2019-01-02T01:02:36.918Z,16.57
2019-01-02T01:05:08.109Z,17.03
2019-01-02T01:07:39.619Z,15.73
2019-01-02T01:10:13.702Z,16.53
2019-01-02T01:12:45.398Z,15.20
2019-01-02T01:15:16.752Z,16.23
2019-01-02T01:17:48.142Z,17.80
2019-01-02T01:20:20.907Z,16.60
2019-01-02T01:22:53.155Z,15.23
2019-01-02T01:25:25.541Z,14.10
2019-01-02T01:27:56.757Z,13.87
2019-01-02T01:30:27.995Z,13.73
2019-01-02T01:32:59.334Z,14.30
2019-01-02T01:35:30.666Z,13.87
2019-01-02T01:38:02.033Z,14.80
2019-01-02T01:40:33.244Z,13.97
2019-01-02T01:43:04.584Z,13.00
2019-01-02T01:45:35.983Z,14.07
2019-01-02T01:48:07.305Z,13.27
2019-01-02T01:50:38.406Z,13.60
2019-01-02T01:53:10.119Z,14.17
2019-01-02T01:55:41.534Z,14.30
2019-01-02T01:58:13.246Z,13.30
2019-01-02T02:00:44.583Z,12.93
2019-01-02T02:03:15.887Z,13.50
2019-01-02T02:05:46.926Z,13.87
2019-01-02T02:08:18.188Z,16.40
2019-01-02T02:10:49.343Z,13.87
2019-01-02T02:13:21.069Z,14.33
2019-01-02T02:15:52.503Z,15.27
2019-01-02T02:18:23.603Z,15.40
2019-01-02T02:20:55.225Z,15.27
2019-01-02T02:23:26.931Z,15.17
2019-01-02T02:25:58.051Z,15.07
2019-01-02T02:28:29.623Z,14.23
2019-01-02T02:31:00.936Z,14.17
2019-01-02T02:33:32.483Z,15.20
2019-01-02T02:36:04.072Z,14.37
2019-01-02T02:38:35.388Z,14.27
2019-01-02T02:41:06.958Z,16.47
2019-01-02T02:43:38.743Z,20.70
2019-01-02T02:46:11.021Z,18.73
2019-01-02T02:48:42.214Z,21.30
2019-01-02T02:51:13.750Z,22.87
2019-01-02T02:53:46.757Z,23.73
2019-01-02T02:56:18.305Z,23.10
2019-01-02T02:58:49.812Z,22.27
2019-01-02T03:01:21.329Z,24.73
2019-01-02T03:03:52.750Z,24.23
2019-01-02T03:06:27.385Z,24.00
2019-01-02T03:08:56.948Z,25.90
2019-01-02T03:11:28.489Z,27.17
2019-01-02T03:13:59.937Z,26.77
2019-01-02T03:16:31.327Z,33.40
2019-01-02T03:19:02.986Z,30.13
2019-01-02T03:21:34.470Z,48.63
2019-01-02T03:24:05.879Z,27.37
2019-01-02T03:26:37.040Z,23.47
2019-01-02T03:29:08.517Z,26.97
2019-01-02T03:31:41.101Z,31.83
2019-01-02T03:34:12.607Z,22.77
2019-01-02T03:36:43.787Z,30.30
2019-01-02T03:39:14.913Z,38.27
2019-01-02T03:41:46.096Z,27.43
2019-01-02T03:44:18.339Z,23.70
2019-01-02T03:46:49.661Z,24.53
2019-01-02T03:49:20.886Z,21.80
2019-01-02T03:51:52.121Z,17.17
2019-01-02T03:54:23.416Z,15.57
2019-01-02T03:56:54.742Z,13.53
2019-01-02T03:59:26.228Z,13.60
2019-01-02T04:01:57.522Z,13.63
2019-01-02T04:04:28.771Z,12.73
2019-01-02T04:07:00.098Z,13.40
2019-01-02T04:09:31.361Z,13.00
2019-01-02T04:12:02.632Z,13.03
2019-01-02T04:14:33.680Z,12.90
2019-01-02T04:17:04.948Z,12.73
2019-01-02T04:19:36.088Z,13.30
2019-01-02T04:22:07.316Z,14.17
2019-01-02T04:24:38.658Z,12.97
2019-01-02T04:27:10.658Z,13.57
2019-01-02T04:29:42.071Z,13.17
2019-01-02T04:32:14.865Z,12.23
2019-01-02T04:34:46.163Z,12.30
2019-01-02T04:37:17.344Z,12.30
2019-01-02T04:39:48.684Z,11.93
2019-01-02T04:42:19.913Z,11.60
2019-01-02T04:44:51.288Z,11.97
2019-01-02T04:47:22.497Z,12.70
2019-01-02T04:49:53.696Z,12.57
2019-01-02T04:52:24.925Z,11.83
2019-01-02T04:54:56.238Z,11.73
2019-01-02T04:57:27.549Z,11.80
2019-01-02T04:59:58.839Z,12.30
2019-01-02T05:02:32.701Z,12.20
2019-01-02T05:05:03.889Z,12.20
2019-01-02T05:07:35.139Z,12.43
2019-01-02T05:10:07.820Z,11.37
2019-01-02T05:12:41.280Z,10.90
2019-01-02T05:15:12.704Z,11.10
2019-01-02T05:17:43.924Z,10.60
2019-01-02T05:20:16.661Z,11.63
2019-01-02T05:22:47.950Z,11.97
2019-01-02T05:25:20.884Z,11.30
2019-01-02T05:27:52.061Z,11.53
2019-01-02T05:30:25.644Z,11.70
2019-01-02T05:32:56.992Z,14.30
2019-01-02T05:35:28.293Z,14.30
2019-01-02T05:37:59.669Z,15.80
2019-01-02T05:40:31.030Z,15.87
2019-01-02T05:43:02.136Z,15.57
2019-01-02T05:45:35.386Z,16.83
2019-01-02T05:48:06.539Z,17.47
2019-01-02T05:50:37.795Z,17.07
2019-01-02T05:53:09.171Z,20.67
2019-01-02T05:55:40.437Z,20.40
2019-01-02T05:58:11.494Z,18.00
2019-01-02T06:00:42.867Z,16.70
2019-01-02T06:03:14.116Z,15.93
2019-01-02T06:05:45.432Z,16.97
2019-01-02T06:08:16.678Z,18.23
2019-01-02T06:10:47.710Z,18.87
2019-01-02T06:13:18.847Z,18.80
2019-01-02T06:15:50.131Z,17.80
2019-01-02T06:18:21.290Z,17.10
2019-01-02T06:20:52.453Z,15.67
2019-01-02T06:23:23.512Z,16.70
2019-01-02T06:25:54.701Z,15.97
2019-01-02T06:28:25.902Z,16.23
2019-01-02T06:30:57.124Z,15.30
2019-01-02T06:33:28.241Z,14.83
2019-01-02T06:35:59.431Z,14.63
2019-01-02T06:38:30.640Z,15.10
2019-01-02T06:41:01.918Z,16.33
2019-01-02T06:43:33.037Z,14.57
2019-01-02T06:46:04.332Z,13.77
2019-01-02T06:48:35.509Z,13.80
2019-01-02T06:51:06.698Z,15.10
2019-01-02T06:53:38.025Z,14.70
2019-01-02T06:56:09.228Z,14.17
2019-01-02T06:58:40.446Z,13.67
2019-01-02T07:01:11.538Z,15.03
2019-01-02T07:03:42.891Z,15.97
2019-01-02T07:06:14.169Z,17.30
2019-01-02T07:08:45.411Z,17.03
2019-01-02T07:11:16.558Z,16.10
2019-01-02T07:13:47.737Z,16.70
2019-01-02T07:16:18.882Z,15.67
2019-01-02T07:18:50.155Z,17.03
2019-01-02T07:21:21.545Z,18.90
2019-01-02T07:23:52.967Z,19.87
2019-01-02T07:26:24.184Z,31.47
2019-01-02T07:28:55.476Z,20.30
2019-01-02T07:31:26.700Z,28.97
2019-01-02T07:34:31.142Z,29.07
2019-01-02T07:37:47.723Z,25.07
2019-01-02T07:41:14.725Z,23.53
2019-01-02T07:44:37.268Z,18.43
2019-01-02T07:47:43.427Z,18.13
2019-01-02T07:51:02.790Z,16.77
2019-01-02T07:54:29.029Z,19.77
2019-01-02T07:57:49.975Z,18.47
2019-01-02T08:00:57.628Z,19.97
2019-01-02T08:04:08.265Z,36.20
2019-01-02T08:07:18.856Z,31.70
2019-01-02T08:10:35.416Z,27.03
2019-01-02T08:13:46.317Z,26.93
2019-01-02T08:16:49.879Z,22.60
2019-01-02T08:19:56.932Z,23.27
2019-01-02T08:23:11.928Z,21.13
2019-01-02T08:26:23.392Z,21.97
2019-01-02T08:29:35.432Z,22.57
2019-01-02T08:32:52.040Z,25.13
2019-01-02T08:35:55.407Z,21.73
2019-01-02T08:39:04.548Z,19.43
2019-01-02T08:42:10.617Z,17.43
2019-01-02T08:45:31.633Z,16.27
2019-01-02T08:48:35.293Z,16.83
2019-01-02T08:51:45.970Z,17.97
2019-01-02T08:54:43.940Z,18.00
2019-01-02T08:58:13.961Z,18.50
2019-01-02T09:01:38.271Z,21.80
2019-01-02T09:04:53.767Z,24.53
2019-01-02T09:07:58.041Z,21.97
2019-01-02T09:11:07.202Z,21.07
2019-01-02T09:14:33.401Z,19.20
2019-01-02T09:17:41.152Z,18.50
2019-01-02T09:20:52.935Z,19.13
2019-01-02T09:24:12.725Z,19.37
2019-01-02T09:27:14.625Z,19.57
2019-01-02T09:30:37.531Z,19.30
2019-01-02T09:33:37.378Z,19.43
2019-01-02T09:36:46.465Z,20.63
2019-01-02T09:39:38.730Z,21.57
2019-01-02T09:42:57.662Z,22.47
2019-01-02T09:45:54.532Z,23.47
2019-01-02T09:48:50.645Z,22.00
2019-01-02T09:52:04.324Z,20.83
2019-01-02T09:55:24.442Z,20.13
2019-01-02T09:58:45.677Z,22.40
2019-01-02T10:01:35.456Z,21.90
2019-01-02T10:04:46.464Z,25.47
2019-01-02T10:08:01.797Z,23.63
2019-01-02T10:11:09.490Z,24.33
2019-01-02T10:14:36.343Z,23.37
2019-01-02T10:17:48.336Z,22.80
2019-01-02T10:20:44.047Z,23.27
2019-01-02T10:23:31.328Z,77.73
2019-01-02T10:26:31.693Z,24.93
2019-01-02T10:29:34.999Z,27.13
2019-01-02T10:32:46.067Z,25.03
2019-01-02T10:36:19.250Z,23.53
2019-01-02T10:39:20.712Z,25.27
2019-01-02T10:42:09.262Z,25.70
2019-01-02T10:45:11.255Z,25.07
2019-01-02T10:47:56.811Z,21.80
2019-01-02T10:51:11.262Z,17.97
2019-01-02T10:53:52.145Z,17.87
2019-01-02T10:57:05.104Z,12.70
2019-01-02T11:00:15.790Z,9.77
2019-01-02T11:03:18.521Z,10.57
2019-01-02T11:06:45.342Z,10.23
2019-01-02T11:09:59.497Z,10.40
2019-01-02T11:13:14.341Z,10.03
2019-01-02T11:16:35.042Z,9.80
2019-01-02T11:19:52.965Z,9.47
2019-01-02T11:22:50.630Z,9.93
2019-01-02T11:25:52.684Z,10.67
2019-01-02T11:29:02.550Z,8.90
2019-01-02T11:32:28.779Z,9.10
2019-01-02T11:35:20.097Z,8.10
2019-01-02T11:38:43.147Z,6.90
2019-01-02T11:41:42.024Z,7.00
2019-01-02T11:44:49.834Z,7.20
2019-01-02T11:47:20.871Z,6.97
2019-01-02T11:49:52.138Z,7.70
2019-01-02T11:52:23.194Z,7.40
2019-01-02T11:54:54.348Z,7.90
2019-01-02T11:57:25.623Z,7.77
2019-01-02T11:59:56.679Z,8.20
2019-01-02T12:02:34.065Z,8.40
2019-01-02T12:05:00.681Z,8.00
2019-01-02T12:07:32.108Z,7.10
2019-01-02T12:10:03.400Z,6.40
2019-01-02T12:12:34.737Z,7.40
2019-01-02T12:15:07.223Z,7.63
2019-01-02T12:17:38.482Z,7.13
2019-01-02T12:20:11.291Z,7.63
2019-01-02T12:22:42.527Z,7.27
2019-01-02T12:25:13.714Z,6.57
2019-01-02T12:27:44.804Z,7.27
2019-01-02T12:30:16.725Z,7.07
2019-01-02T12:32:47.753Z,6.00
2019-01-02T12:35:18.955Z,7.10
2019-01-02T12:37:50.092Z,6.93
2019-01-02T12:40:21.218Z,7.10
2019-01-02T12:42:52.559Z,7.23
2019-01-02T12:45:23.926Z,5.53
2019-01-02T12:47:55.266Z,6.00
2019-01-02T12:50:26.577Z,6.07
2019-01-02T12:52:59.274Z,6.53
2019-01-02T12:55:30.452Z,5.90
2019-01-02T12:58:01.759Z,6.63
2019-01-02T13:00:39.620Z,6.27
2019-01-02T13:03:48.675Z,6.03
2019-01-02T13:06:47.319Z,6.40
2019-01-02T13:09:55.467Z,6.60
2019-01-02T13:13:03.308Z,7.13
2019-01-02T13:15:43.245Z,7.47
2019-01-02T13:18:50.031Z,6.83
2019-01-02T13:22:07.229Z,7.87
2019-01-02T13:24:53.860Z,7.37
2019-01-02T13:27:45.169Z,7.47
2019-01-02T13:30:57.094Z,7.83
2019-01-02T13:34:33.314Z,7.90
2019-01-02T13:37:20.654Z,7.87
2019-01-02T13:40:37.639Z,7.97
2019-01-02T13:43:38.911Z,8.43
2019-01-02T13:46:46.290Z,7.63
2019-01-02T13:49:44.157Z,8.23
2019-01-02T13:52:15.422Z,7.80
2019-01-02T13:54:46.813Z,6.97
2019-01-02T13:57:17.876Z,5.60
2019-01-02T13:59:50.034Z,6.50
2019-01-02T14:02:21.176Z,7.20
2019-01-02T14:04:52.460Z,7.30
2019-01-02T14:07:23.721Z,7.03
2019-01-02T14:09:55.153Z,7.37
2019-01-02T14:12:26.535Z,7.17
2019-01-02T14:14:57.938Z,7.40
2019-01-02T14:17:31.720Z,7.30
2019-01-02T14:20:03.020Z,7.40
2019-01-02T14:22:34.247Z,7.37
2019-01-02T14:25:05.690Z,7.13
2019-01-02T14:27:36.896Z,7.63
2019-01-02T14:30:08.779Z,7.80
2019-01-02T14:32:39.974Z,8.87
2019-01-02T14:35:11.262Z,7.73
2019-01-02T14:37:42.539Z,7.60
2019-01-02T14:40:13.885Z,8.70
2019-01-02T14:42:45.040Z,7.63
2019-01-02T14:45:16.179Z,9.30
2019-01-02T14:47:47.596Z,9.07
2019-01-02T14:50:18.943Z,7.87
2019-01-02T14:52:51.176Z,8.40
2019-01-02T14:55:22.522Z,9.33
2019-01-02T14:57:53.699Z,10.00
2019-01-02T15:00:24.979Z,9.13
2019-01-02T15:02:56.264Z,9.23
2019-01-02T15:05:27.422Z,8.93
2019-01-02T15:07:58.710Z,9.23
2019-01-02T15:10:29.889Z,9.10
2019-01-02T15:13:01.168Z,10.07
2019-01-02T15:15:33.475Z,9.67
2019-01-02T15:18:04.912Z,11.10
2019-01-02T15:20:36.104Z,9.90
2019-01-02T15:23:07.437Z,9.77
2019-01-02T15:25:38.827Z,9.57
2019-01-02T15:28:11.243Z,9.30
2019-01-02T15:30:42.619Z,11.00
2019-01-02T15:33:14.061Z,10.00
2019-01-02T15:35:48.943Z,11.07
2019-01-02T15:38:18.398Z,10.13
2019-01-02T15:40:49.722Z,11.10
2019-01-02T15:43:21.003Z,11.30
2019-01-02T15:45:53.353Z,11.30
2019-01-02T15:48:24.745Z,12.27
2019-01-02T15:50:57.094Z,11.13
2019-01-02T15:53:28.421Z,10.50
2019-01-02T15:55:59.665Z,10.53
2019-01-02T15:58:30.790Z,10.83
2019-01-02T16:01:02.066Z,11.23
2019-01-02T16:03:33.435Z,11.47
2019-01-02T16:06:04.733Z,11.27
2019-01-02T16:08:35.891Z,12.37
2019-01-02T16:11:07.213Z,11.73
2019-01-02T16:13:38.320Z,11.83
2019-01-02T16:16:09.525Z,11.30
2019-01-02T16:18:41.002Z,11.17
2019-01-02T16:21:12.313Z,9.77
2019-01-02T16:23:43.672Z,10.80
2019-01-02T16:26:14.902Z,10.20
2019-01-02T16:28:46.367Z,9.73
2019-01-02T16:31:17.712Z,9.27
2019-01-02T16:33:48.962Z,8.80
2019-01-02T16:36:20.209Z,8.80
2019-01-02T16:38:51.367Z,8.87
2019-01-02T16:41:22.667Z,8.97
2019-01-02T16:43:54.022Z,9.07
2019-01-02T16:46:25.492Z,8.00
2019-01-02T16:48:56.646Z,8.27
2019-01-02T16:51:27.780Z,7.33
2019-01-02T16:53:59.010Z,7.30
2019-01-02T16:56:30.207Z,8.13
2019-01-02T16:59:01.535Z,7.23
2019-01-02T17:01:32.868Z,6.63
2019-01-02T17:04:04.267Z,7.57
2019-01-02T17:06:35.687Z,6.73
2019-01-02T17:09:08.962Z,6.70
2019-01-02T17:11:40.241Z,6.67
2019-01-02T17:14:11.404Z,6.40
2019-01-02T17:16:42.646Z,6.50
2019-01-02T17:19:14.141Z,6.03
2019-01-02T17:21:45.239Z,6.67
2019-01-02T17:24:18.091Z,6.40
2019-01-02T17:26:49.579Z,6.50
2019-01-02T17:29:24.972Z,7.60
2019-01-02T17:31:56.315Z,6.47
2019-01-02T17:34:27.619Z,7.10
2019-01-02T17:36:59.875Z,6.73
2019-01-02T17:39:31.066Z,6.03
2019-01-02T17:42:02.076Z,7.07
2019-01-02T17:44:34.699Z,7.70
2019-01-02T17:47:07.102Z,6.80
2019-01-02T17:49:38.441Z,6.00
2019-01-02T17:52:09.622Z,7.33
2019-01-02T17:54:40.932Z,7.67
2019-01-02T17:57:12.159Z,9.20
2019-01-02T17:59:44.375Z,9.67
2019-01-02T18:02:16.775Z,8.27
2019-01-02T18:04:47.892Z,8.27
2019-01-02T18:07:19.256Z,8.90
2019-01-02T18:09:50.389Z,8.90
2019-01-02T18:12:21.682Z,6.90
2019-01-02T18:14:53.065Z,7.33
2019-01-02T18:17:24.298Z,7.67
2019-01-02T18:19:55.529Z,6.90
2019-01-02T18:22:26.720Z,8.07
2019-01-02T18:24:58.045Z,9.50
2019-01-02T18:27:29.043Z,8.43
2019-01-02T18:30:00.251Z,8.70
2019-01-02T18:32:31.467Z,8.90
2019-01-02T18:35:02.672Z,7.80
2019-01-02T18:37:33.788Z,7.33
2019-01-02T18:40:07.851Z,7.90
2019-01-02T18:42:38.906Z,7.37
2019-01-02T18:45:10.506Z,7.60
2019-01-02T18:47:41.840Z,7.47
2019-01-02T18:50:12.943Z,8.10
2019-01-02T18:52:44.065Z,7.90
2019-01-02T18:55:15.369Z,7.70
2019-01-02T18:57:46.608Z,7.67
2019-01-02T19:00:17.983Z,8.13
2019-01-02T19:02:49.405Z,7.70
2019-01-02T19:05:20.573Z,7.83
2019-01-02T19:07:53.008Z,8.10
2019-01-02T19:10:26.533Z,8.03
2019-01-02T19:12:57.851Z,9.23
2019-01-02T19:15:29.004Z,7.43
2019-01-02T19:18:00.109Z,8.30
2019-01-02T19:20:31.433Z,8.37
2019-01-02T19:23:02.675Z,7.40
2019-01-02T19:25:33.955Z,7.93
2019-01-02T19:28:05.088Z,8.13
2019-01-02T19:30:36.401Z,8.03
2019-01-02T19:33:07.681Z,8.47
2019-01-02T19:35:39.032Z,8.50
2019-01-02T19:38:10.236Z,9.10
2019-01-02T19:40:41.379Z,8.10
2019-01-02T19:43:12.599Z,9.07
2019-01-02T19:45:43.899Z,8.07
2019-01-02T19:48:16.111Z,9.23
2019-01-02T19:50:47.381Z,8.27
2019-01-02T19:53:18.648Z,8.70
2019-01-02T19:55:49.807Z,9.17
2019-01-02T19:58:21.161Z,9.13
2019-01-02T20:00:52.445Z,8.77
2019-01-02T20:03:23.583Z,8.80
2019-01-02T20:05:54.893Z,9.13
2019-01-02T20:08:26.107Z,9.17
2019-01-02T20:10:57.489Z,9.23
2019-01-02T20:13:28.595Z,9.60
2019-01-02T20:15:59.946Z,9.60
2019-01-02T20:18:31.562Z,9.50
2019-01-02T20:21:02.702Z,9.73
2019-01-02T20:23:33.937Z,9.37
2019-01-02T20:26:05.220Z,8.63
2019-01-02T20:28:36.439Z,8.27
2019-01-02T20:31:07.670Z,8.90
2019-01-02T20:33:38.800Z,9.60
2019-01-02T20:36:10.044Z,9.40
2019-01-02T20:38:41.236Z,10.07
2019-01-02T20:41:14.545Z,9.80
2019-01-02T20:43:45.827Z,9.50
2019-01-02T20:46:17.227Z,9.17
2019-01-02T20:48:48.409Z,9.37
2019-01-02T20:51:20.996Z,9.10
2019-01-02T20:53:53.283Z,10.23
2019-01-02T20:56:25.640Z,9.30
2019-01-02T20:58:56.784Z,9.67
2019-01-02T21:01:27.935Z,9.63
2019-01-02T21:03:59.009Z,9.67
2019-01-02T21:06:30.092Z,9.13
2019-01-02T21:09:01.210Z,9.67
2019-01-02T21:11:34.115Z,8.77
2019-01-02T21:14:05.177Z,10.57
2019-01-02T21:16:36.359Z,9.57
2019-01-02T21:19:07.495Z,10.07
2019-01-02T21:21:38.613Z,9.50
2019-01-02T21:24:09.718Z,10.20
2019-01-02T21:26:41.005Z,10.10
2019-01-02T21:29:12.238Z,10.20
2019-01-02T21:31:43.607Z,10.00
2019-01-02T21:34:14.815Z,9.77
2019-01-02T21:36:46.211Z,8.80
2019-01-02T21:39:17.332Z,9.97
2019-01-02T21:41:48.585Z,9.40
2019-01-02T21:44:19.905Z,9.10
2019-01-02T21:46:51.176Z,9.73
2019-01-02T21:49:22.196Z,10.10
2019-01-02T21:51:53.414Z,9.67
2019-01-02T21:54:24.750Z,10.07
2019-01-02T21:56:55.920Z,10.70
2019-01-02T21:59:27.132Z,10.50
2019-01-02T22:01:58.390Z,10.50
2019-01-02T22:04:29.428Z,11.13
2019-01-02T22:07:00.658Z,10.33
2019-01-02T22:09:31.813Z,10.40
2019-01-02T22:12:02.982Z,10.33
2019-01-02T22:14:34.239Z,10.70
2019-01-02T22:17:07.251Z,10.80
2019-01-02T22:19:38.292Z,10.33
2019-01-02T22:22:09.493Z,12.20
2019-01-02T22:24:40.603Z,10.73
2019-01-02T22:27:11.760Z,11.67
2019-01-02T22:29:42.997Z,11.20
2019-01-02T22:32:14.228Z,11.73
2019-01-02T22:34:45.518Z,11.20
2019-01-02T22:37:16.846Z,11.77
2019-01-02T22:39:48.081Z,10.47
2019-01-02T22:42:19.278Z,11.30
2019-01-02T22:44:50.528Z,11.57
2019-01-02T22:47:21.766Z,10.67
2019-01-02T22:49:52.875Z,10.97
2019-01-02T22:52:24.022Z,11.00
2019-01-02T22:54:55.361Z,10.37
2019-01-02T22:57:26.626Z,11.30
2019-01-02T22:59:57.727Z,10.67
2019-01-02T23:02:40.049Z,11.03
2019-01-02T23:05:49.761Z,11.23
2019-01-02T23:08:38.258Z,11.97
2019-01-02T23:11:23.748Z,11.47
2019-01-02T23:14:29.088Z,11.27
2019-01-02T23:17:31.281Z,10.87
2019-01-02T23:20:19.922Z,11.00
2019-01-02T23:23:09.313Z,11.33
2019-01-02T23:26:00.577Z,11.80
2019-01-02T23:28:57.659Z,11.60
2019-01-02T23:32:06.223Z,10.70
2019-01-02T23:34:56.346Z,10.03
2019-01-02T23:37:47.527Z,11.33
2019-01-02T23:40:36.553Z,10.60
2019-01-02T23:43:26.846Z,11.17
2019-01-02T23:46:15.610Z,10.63
2019-01-02T23:49:04.210Z,11.57
2019-01-02T23:51:48.253Z,11.30
2019-01-02T23:54:37.030Z,11.10
2019-01-02T23:57:35.967Z,11.27
